메인 페이지
METAR-TAF:

METAR-TAF

공항 :

도쿄 국제공항

도쿄국제공항, 일본

위도: 35-33N, 경도: 139-47E, 고도: 5m

현재 날씨관측

예보는 25분 전, 00:00시(UTC)에 발표되었습니다.
5kt
온도 22°C
습도 88%
기압 1008 hPa
시정 10km 이상
고도 800ft 상공 구름 조금
고도 1200ft 상공 구름 보통
고도 1400ft 상공 구름 많음

METAR: RJTT 220000Z 10005KT 9999 FEW008 SCT012 BKN014 22/20 Q1008 BECMG 36005KT TEMPO FM0100 FEW005 BKN008

시각: 09:25 (00:25 UTC)

예보

예보는 1 시간 16분 전, 23:09시(UTC)에 발표되었습니다.
예보 대상 시간: 22일 00시부터 23일 06시까지 (UTC)
동남동5kt
시정 10km 이상
고도 800ft 상공 구름 조금
고도 1200ft 상공 구름 많음
전환 중
22일 00시부터 22일 02시까지 (UTC)
5kt
일시적
22일 01시부터 22일 04시까지 (UTC)
고도 500ft 상공 구름 조금
고도 800ft 상공 구름 많음
전환 중
23일 00시부터 23일 03시까지 (UTC)
6kt

TAF: RJTT 212309Z 2200/2306 12005KT 9999 FEW008 BKN012 BECMG 2200/2202 36005KT TEMPO 2201/2204 FEW005 BKN008 BECMG 2300/2303 08006KT

4,000개 이상의 공항 관측 자료 및 예보 (METAR 및 TAF 보고).

지도상에서 검색 가능한 기상관측소가 노란 점과 빨간 점으로 표시되어 있습니다.

기상관측소 명을 보려면 표시 위로 마우스를 이동하세요.

날씨 관측과 예보를 보려면 클릭하세요.

지도 변경 : 확대하려면 엑스 표시가 있는 녹색 버튼, 축소하려면 빼기 표시가 있는 녹색 버튼, 다음 페이지의 지도를 보려면 녹색 화살표를 클릭하세요.


METAR-TAF: